createdAt,value
2023-04-12T00:00:56.064Z,22.75
2023-04-12T00:04:06.254Z,23.75
2023-04-12T00:07:12.420Z,23.58
2023-04-12T00:10:18.077Z,22.92
2023-04-12T00:13:23.554Z,23.70
2023-04-12T00:16:29.473Z,23.60
2023-04-12T00:19:41.724Z,24.17
2023-04-12T00:22:47.216Z,23.58
2023-04-12T00:25:52.541Z,24.25
2023-04-12T00:28:58.187Z,23.70
2023-04-12T00:32:05.865Z,24.75
2023-04-12T00:35:14.405Z,24.13
2023-04-12T00:38:19.793Z,23.45
2023-04-12T00:41:25.310Z,24.58
2023-04-12T00:44:31.421Z,25.77
2023-04-12T00:47:38.218Z,23.58
2023-04-12T00:50:47.856Z,25.08
2023-04-12T00:53:55.847Z,24.77
2023-04-12T00:57:01.419Z,25.65
2023-04-12T01:00:09.380Z,25.33
2023-04-12T01:03:16.785Z,23.45
2023-04-12T01:06:32.908Z,24.67
2023-04-12T01:09:41.668Z,24.77
2023-04-12T01:12:53.297Z,24.42
2023-04-12T01:16:02.922Z,24.92
2023-04-12T01:19:18.464Z,23.63
2023-04-12T01:22:33.175Z,24.65
2023-04-12T01:25:41.321Z,25.45
2023-04-12T01:28:50.109Z,26.15
2023-04-12T01:31:58.161Z,25.27
2023-04-12T01:35:05.688Z,23.98
2023-04-12T01:38:11.483Z,24.30
2023-04-12T01:41:16.983Z,25.88
2023-04-12T01:44:25.707Z,25.17
2023-04-12T01:47:31.207Z,24.30
2023-04-12T01:50:42.138Z,23.95
2023-04-12T01:53:50.811Z,23.23
2023-04-12T02:00:07.647Z,23.10
2023-04-12T02:03:20.769Z,25.00
2023-04-12T02:06:27.298Z,25.27
2023-04-12T02:09:32.497Z,26.02
2023-04-12T02:12:38.767Z,25.73
2023-04-12T02:15:46.604Z,24.95
2023-04-12T02:18:52.339Z,25.20
2023-04-12T02:21:57.972Z,23.98
2023-04-12T02:25:03.567Z,23.95
2023-04-12T02:28:09.814Z,26.65
2023-04-12T02:31:19.220Z,24.98
2023-04-12T02:34:26.524Z,24.90
2023-04-12T02:37:40.204Z,24.52
2023-04-12T02:40:46.098Z,24.95
2023-04-12T02:43:54.135Z,26.33
2023-04-12T02:47:02.902Z,25.33
2023-04-12T02:50:11.279Z,25.75
2023-04-12T02:53:27.386Z,26.40
2023-04-12T02:56:55.538Z,26.43
2023-04-12T03:00:15.656Z,25.50
2023-04-12T03:03:28.787Z,26.50
2023-04-12T03:06:40.534Z,27.38
2023-04-12T03:09:45.800Z,26.88
2023-04-12T03:12:52.179Z,27.42
2023-04-12T03:16:00.086Z,26.05
2023-04-12T03:19:15.268Z,27.13
2023-04-12T03:22:23.783Z,25.67
2023-04-12T03:25:33.522Z,26.95
2023-04-12T03:28:57.839Z,27.35
2023-04-12T03:32:03.337Z,28.25
2023-04-12T03:35:12.078Z,28.08
2023-04-12T03:38:20.082Z,28.27
2023-04-12T03:41:26.415Z,28.98
2023-04-12T03:44:33.366Z,28.65
2023-04-12T03:47:44.495Z,29.17
2023-04-12T03:50:55.231Z,29.23
2023-04-12T03:54:03.070Z,27.77
2023-04-12T03:57:17.037Z,28.65
2023-04-12T04:00:26.278Z,26.42
2023-04-12T04:03:43.924Z,27.90
2023-04-12T04:07:03.176Z,27.55
2023-04-12T04:10:16.968Z,28.98
2023-04-12T04:13:23.705Z,29.98
2023-04-12T04:16:33.649Z,28.75
2023-04-12T04:19:41.469Z,30.38
2023-04-12T04:22:50.304Z,30.75
2023-04-12T04:25:56.571Z,27.88
2023-04-12T04:29:05.337Z,28.90
2023-04-12T04:32:17.738Z,29.27
2023-04-12T04:35:24.613Z,29.80
2023-04-12T04:38:48.487Z,29.25
2023-04-12T04:42:07.183Z,30.05
2023-04-12T04:48:32.565Z,30.20
2023-04-12T04:51:37.688Z,30.27
2023-04-12T04:54:46.316Z,31.25
2023-04-12T05:01:00.113Z,32.72
2023-04-12T05:04:07.343Z,31.20
2023-04-12T05:07:13.758Z,29.30
2023-04-12T05:10:25.055Z,31.73
2023-04-12T05:13:31.362Z,31.80
2023-04-12T05:16:37.636Z,29.95
2023-04-12T05:19:45.419Z,30.33
2023-04-12T05:22:51.137Z,31.00
2023-04-12T05:25:59.309Z,31.27
2023-04-12T05:29:06.576Z,31.00
2023-04-12T05:32:11.806Z,28.08
2023-04-12T05:35:17.119Z,32.22
2023-04-12T05:38:23.258Z,30.33
2023-04-12T05:41:35.235Z,30.02
2023-04-12T05:44:41.836Z,30.00
2023-04-12T05:47:50.831Z,29.20
2023-04-12T05:50:56.413Z,27.10
2023-04-12T05:54:02.008Z,26.08
2023-04-12T05:57:13.478Z,23.48
2023-04-12T06:00:20.103Z,24.00
2023-04-12T06:03:27.126Z,23.10
2023-04-12T06:06:37.308Z,22.52
2023-04-12T06:09:43.322Z,22.45
2023-04-12T06:12:51.686Z,20.63
2023-04-12T06:19:03.125Z,18.25
2023-04-12T06:22:08.458Z,24.45
2023-04-12T06:25:14.588Z,21.50
2023-04-12T06:28:22.782Z,19.65
2023-04-12T06:31:30.078Z,19.63
2023-04-12T06:34:35.559Z,18.05
2023-04-12T06:37:45.243Z,19.48
2023-04-12T06:40:50.927Z,19.27
2023-04-12T06:43:58.943Z,19.00
2023-04-12T06:47:04.405Z,19.77
2023-04-12T06:50:10.600Z,18.58
2023-04-12T06:53:16.457Z,19.85
2023-04-12T06:56:21.881Z,20.40
2023-04-12T06:59:29.674Z,18.77
2023-04-12T07:02:35.084Z,18.92
2023-04-12T07:05:41.177Z,19.25
2023-04-12T07:08:46.354Z,18.77
2023-04-12T07:11:51.833Z,19.23
2023-04-12T07:14:59.696Z,17.65
2023-04-12T07:18:05.317Z,17.38
2023-04-12T07:21:14.795Z,17.92
2023-04-12T07:24:20.375Z,19.40
2023-04-12T07:27:25.789Z,18.98
2023-04-12T07:30:33.588Z,17.38
2023-04-12T07:33:41.338Z,19.17
2023-04-12T07:36:48.300Z,19.27
2023-04-12T07:39:54.101Z,18.63
2023-04-12T07:42:59.196Z,17.55
2023-04-12T07:46:09.090Z,17.42
2023-04-12T07:49:14.579Z,16.55
2023-04-12T07:52:20.044Z,17.00
2023-04-12T07:55:25.588Z,17.13
2023-04-12T07:58:31.080Z,15.82
2023-04-12T08:01:38.918Z,16.67
2023-04-12T08:04:46.091Z,15.68
2023-04-12T08:07:51.752Z,15.68
2023-04-12T08:10:57.421Z,16.85
2023-04-12T08:14:03.790Z,15.15
2023-04-12T08:17:11.569Z,14.75
2023-04-12T08:20:18.092Z,15.38
2023-04-12T08:23:23.735Z,13.75
2023-04-12T08:26:30.427Z,13.52
2023-04-12T08:29:35.724Z,14.23
2023-04-12T08:32:44.120Z,16.02
2023-04-12T08:35:49.886Z,13.45
2023-04-12T08:38:56.433Z,14.50
2023-04-12T08:42:01.935Z,15.50
2023-04-12T08:45:10.871Z,10.82
2023-04-12T08:48:19.303Z,11.93
2023-04-12T08:54:29.984Z,10.20
2023-04-12T08:57:36.250Z,9.90
2023-04-12T09:00:41.748Z,10.65
2023-04-12T09:03:49.986Z,10.40
2023-04-12T09:06:55.687Z,12.43
2023-04-12T09:10:01.510Z,12.45
2023-04-12T09:13:08.766Z,13.03
2023-04-12T09:16:14.714Z,10.73
2023-04-12T09:19:33.738Z,11.52
2023-04-12T09:22:40.359Z,12.52
2023-04-12T09:25:48.557Z,13.40
2023-04-12T09:28:54.106Z,12.27
2023-04-12T09:32:00.295Z,11.60
2023-04-12T09:35:09.177Z,12.32
2023-04-12T09:38:14.735Z,11.95
2023-04-12T09:41:26.713Z,14.15
2023-04-12T09:44:34.544Z,13.63
2023-04-12T09:47:41.607Z,15.15
2023-04-12T09:50:49.608Z,14.68
2023-04-12T09:53:57.473Z,13.95
2023-04-12T09:57:03.645Z,13.70
2023-04-12T10:00:12.939Z,13.20
2023-04-12T10:03:18.455Z,11.95
2023-04-12T10:06:27.239Z,13.23
2023-04-12T10:09:32.804Z,12.98
2023-04-12T10:12:39.273Z,13.50
2023-04-12T10:15:45.444Z,13.30
2023-04-12T10:18:53.048Z,12.38
2023-04-12T10:22:01.697Z,12.77
2023-04-12T10:25:08.475Z,12.63
2023-04-12T10:28:17.632Z,11.80
2023-04-12T10:31:33.443Z,11.88
2023-04-12T10:34:39.190Z,12.20
2023-04-12T10:37:59.513Z,12.05
2023-04-12T10:41:20.519Z,10.90
2023-04-12T10:44:29.340Z,12.27
2023-04-12T10:47:49.674Z,10.63
2023-04-12T10:51:14.741Z,11.23
2023-04-12T10:54:36.722Z,11.02
2023-04-12T10:57:48.349Z,11.55
2023-04-12T11:01:09.983Z,11.50
2023-04-12T11:04:20.875Z,11.50
2023-04-12T11:07:46.520Z,11.60
2023-04-12T11:11:23.077Z,10.77
2023-04-12T11:14:37.619Z,11.30
2023-04-12T11:17:43.537Z,10.52
2023-04-12T11:20:49.217Z,10.30
2023-04-12T11:23:56.959Z,10.63
2023-04-12T11:27:03.137Z,10.82
2023-04-12T11:30:12.664Z,10.18
2023-04-12T11:33:33.693Z,10.90
2023-04-12T11:36:39.170Z,10.70
2023-04-12T11:39:45.210Z,10.10
2023-04-12T11:42:51.019Z,9.98
2023-04-12T11:46:02.397Z,10.93
2023-04-12T11:49:07.864Z,9.77
2023-04-12T11:52:13.090Z,10.93
2023-04-12T11:55:20.592Z,9.60
2023-04-12T11:58:26.288Z,9.75
2023-04-12T12:01:34.310Z,9.77
2023-04-12T12:04:39.954Z,9.02
2023-04-12T12:07:45.798Z,10.20
2023-04-12T12:11:06.529Z,10.30
2023-04-12T12:14:12.760Z,9.48
2023-04-12T12:17:21.102Z,8.80
2023-04-12T12:20:27.984Z,9.18
2023-04-12T12:23:33.921Z,8.88
2023-04-12T12:26:39.639Z,8.60
2023-04-12T12:29:45.015Z,9.40
2023-04-12T12:32:53.696Z,9.07
2023-04-12T12:36:02.045Z,9.32
2023-04-12T12:39:11.411Z,9.15
2023-04-12T12:42:17.200Z,9.45
2023-04-12T12:45:24.547Z,9.60
2023-04-12T12:48:32.653Z,9.55
2023-04-12T12:51:38.332Z,9.93
2023-04-12T12:54:43.721Z,9.48
2023-04-12T12:58:02.274Z,10.73
2023-04-12T13:01:12.261Z,9.00
2023-04-12T13:04:20.072Z,9.80
2023-04-12T13:07:25.732Z,9.05
2023-04-12T13:10:30.783Z,9.32
2023-04-12T13:13:36.929Z,9.57
2023-04-12T13:16:42.253Z,9.82
2023-04-12T13:19:52.442Z,9.27
2023-04-12T13:22:58.134Z,9.38
2023-04-12T13:26:03.458Z,10.25
2023-04-12T13:29:08.914Z,9.70
2023-04-12T13:32:14.557Z,9.50
2023-04-12T13:35:23.030Z,9.30
2023-04-12T13:38:28.285Z,9.45
2023-04-12T13:41:34.584Z,9.10
2023-04-12T13:44:39.992Z,9.30
2023-04-12T13:47:45.468Z,9.88
2023-04-12T13:50:55.518Z,9.68
2023-04-12T13:54:01.407Z,10.00
2023-04-12T13:57:07.547Z,10.02
2023-04-12T14:00:13.579Z,9.65
2023-04-12T14:03:19.266Z,9.55
2023-04-12T14:06:27.468Z,9.90
2023-04-12T14:09:33.932Z,8.77
2023-04-12T14:12:39.098Z,9.43
2023-04-12T14:15:44.455Z,9.35
2023-04-12T14:18:49.926Z,8.85
2023-04-12T14:21:58.019Z,8.85
2023-04-12T14:25:03.408Z,8.80
2023-04-12T14:28:08.722Z,9.73
2023-04-12T14:31:15.139Z,9.70
2023-04-12T14:34:20.679Z,9.52
2023-04-12T14:37:28.407Z,9.23
2023-04-12T14:43:38.949Z,9.23
2023-04-12T14:46:44.243Z,9.95
2023-04-12T14:49:49.619Z,9.93
2023-04-12T14:52:57.593Z,10.38
2023-04-12T14:56:03.574Z,9.57
2023-04-12T14:59:09.219Z,10.23
2023-04-12T15:02:14.882Z,10.60
2023-04-12T15:05:20.247Z,9.90
2023-04-12T15:08:29.627Z,10.20
2023-04-12T15:11:36.823Z,10.82
2023-04-12T15:14:42.334Z,9.00
2023-04-12T15:17:48.633Z,9.98
2023-04-12T15:20:54.457Z,10.32
2023-04-12T15:24:02.951Z,9.93
2023-04-12T15:27:08.628Z,11.00
2023-04-12T15:30:15.827Z,9.93
2023-04-12T15:33:21.361Z,10.55
2023-04-12T15:36:34.489Z,11.18
2023-04-12T15:39:42.957Z,12.43
2023-04-12T15:45:55.123Z,9.80
2023-04-12T15:49:00.842Z,10.50
2023-04-12T15:52:06.268Z,10.82
2023-04-12T15:55:17.265Z,10.68
2023-04-12T15:58:23.231Z,10.98
2023-04-12T16:01:29.747Z,10.85
2023-04-12T16:04:35.052Z,10.35
2023-04-12T16:07:40.875Z,12.00
2023-04-12T16:10:49.295Z,11.45
2023-04-12T16:16:59.765Z,13.70
2023-04-12T16:20:06.432Z,12.40
2023-04-12T16:23:12.288Z,15.05
2023-04-12T16:26:22.132Z,11.32
2023-04-12T16:29:27.926Z,11.75
2023-04-12T16:32:33.335Z,12.45
2023-04-12T16:35:38.795Z,12.52
2023-04-12T16:38:44.229Z,11.90
2023-04-12T16:41:52.302Z,12.82
2023-04-12T16:44:57.636Z,11.50
2023-04-12T16:48:03.407Z,11.68
2023-04-12T16:51:09.222Z,11.98
2023-04-12T16:54:14.674Z,12.23
2023-04-12T16:57:23.956Z,12.45
2023-04-12T17:00:30.068Z,13.05
2023-04-12T17:03:35.399Z,11.02
2023-04-12T17:06:41.596Z,11.98
2023-04-12T17:09:47.288Z,12.10
2023-04-12T17:12:57.879Z,11.18
2023-04-12T17:16:04.367Z,12.40
2023-04-12T17:19:10.579Z,15.00
2023-04-12T17:22:16.222Z,12.23
2023-04-12T17:25:23.316Z,11.88
2023-04-12T17:28:35.000Z,11.20
2023-04-12T17:31:41.527Z,12.50
2023-04-12T17:34:46.969Z,11.15
2023-04-12T17:37:52.476Z,10.88
2023-04-12T17:40:57.787Z,11.30
2023-04-12T17:44:06.082Z,12.23
2023-04-12T17:50:17.662Z,10.32
2023-04-12T17:53:23.286Z,11.05
2023-04-12T17:56:28.867Z,10.60
2023-04-12T17:59:37.402Z,10.50
2023-04-12T18:02:43.287Z,10.20
2023-04-12T18:05:49.156Z,11.35
2023-04-12T18:08:54.459Z,11.05
2023-04-12T18:12:00.227Z,11.75
2023-04-12T18:15:08.908Z,11.60
2023-04-12T18:18:14.305Z,11.57
2023-04-12T18:21:21.611Z,13.07
2023-04-12T18:24:27.115Z,11.65
2023-04-12T18:27:32.542Z,11.75
2023-04-12T18:30:40.763Z,11.57
2023-04-12T18:33:46.085Z,11.95
2023-04-12T18:36:51.541Z,12.45
2023-04-12T18:39:56.967Z,13.13
2023-04-12T18:43:03.390Z,13.40
2023-04-12T18:46:11.628Z,14.23
2023-04-12T18:49:17.408Z,13.85
2023-04-12T18:52:22.771Z,14.02
2023-04-12T18:55:28.186Z,13.02
2023-04-12T18:58:50.469Z,13.45
2023-04-12T19:02:01.784Z,13.32
2023-04-12T19:05:09.398Z,12.88
2023-04-12T19:08:14.545Z,12.60
2023-04-12T19:11:19.767Z,12.68
2023-04-12T19:14:25.605Z,13.75
2023-04-12T19:17:37.054Z,11.90
2023-04-12T19:20:42.770Z,12.15
2023-04-12T19:23:48.461Z,11.82
2023-04-12T19:26:53.607Z,12.43
2023-04-12T19:29:59.294Z,12.70
2023-04-12T19:33:08.434Z,12.45
2023-04-12T19:36:13.813Z,13.27
2023-04-12T19:39:20.403Z,12.60
2023-04-12T19:42:25.826Z,11.90
2023-04-12T19:45:31.764Z,13.18
2023-04-12T19:48:40.093Z,12.82
2023-04-12T19:51:46.123Z,12.20
2023-04-12T19:54:52.850Z,14.07
2023-04-12T19:57:59.029Z,13.57
2023-04-12T20:01:04.532Z,13.63
2023-04-12T20:04:12.923Z,12.43
2023-04-12T20:10:24.864Z,13.45
2023-04-12T20:13:31.212Z,13.07
2023-04-12T20:16:37.035Z,13.30
2023-04-12T20:19:44.915Z,13.73
2023-04-12T20:22:52.314Z,15.40
2023-04-12T20:25:58.082Z,15.50
2023-04-12T20:29:04.664Z,14.38
2023-04-12T20:32:10.153Z,16.27
2023-04-12T20:35:19.091Z,15.18
2023-04-12T20:38:24.868Z,15.10
2023-04-12T20:41:30.250Z,15.43
2023-04-12T20:44:36.342Z,15.15
2023-04-12T20:47:42.127Z,15.05
2023-04-12T20:50:50.667Z,15.75
2023-04-12T20:53:58.809Z,15.43
2023-04-12T20:57:04.512Z,15.20
2023-04-12T21:00:18.097Z,14.85
2023-04-12T21:03:23.861Z,15.68
2023-04-12T21:06:32.128Z,15.48
2023-04-12T21:09:37.940Z,15.70
2023-04-12T21:12:45.579Z,14.45
2023-04-12T21:15:50.965Z,14.55
2023-04-12T21:18:56.724Z,15.85
2023-04-12T21:22:04.840Z,15.38
2023-04-12T21:25:14.040Z,16.70
2023-04-12T21:28:21.143Z,15.23
2023-04-12T21:31:26.858Z,14.82
2023-04-12T21:34:33.075Z,16.95
2023-04-12T21:37:41.334Z,15.70
2023-04-12T21:40:46.738Z,15.65
2023-04-12T21:43:52.805Z,16.98
2023-04-12T21:46:58.272Z,17.65
2023-04-12T21:50:03.830Z,15.55
2023-04-12T21:53:12.178Z,16.27
2023-04-12T21:56:17.829Z,15.65
2023-04-12T21:59:23.017Z,16.42
2023-04-12T22:02:28.790Z,15.85
2023-04-12T22:05:36.185Z,15.15
2023-04-12T22:08:44.708Z,15.75
2023-04-12T22:14:55.108Z,15.07
2023-04-12T22:18:00.539Z,16.13
2023-04-12T22:21:08.280Z,15.18
2023-04-12T22:24:16.542Z,15.27
2023-04-12T22:27:21.865Z,16.42
2023-04-12T22:30:27.547Z,16.52
2023-04-12T22:33:33.942Z,15.70
2023-04-12T22:36:42.436Z,15.15
2023-04-12T22:39:52.123Z,15.40
2023-04-12T22:42:58.512Z,15.55
2023-04-12T22:46:06.420Z,14.45
2023-04-12T22:49:12.597Z,16.30
2023-04-12T22:52:18.193Z,16.05
2023-04-12T22:55:27.108Z,15.25
2023-04-12T22:58:32.440Z,15.73
2023-04-12T23:01:37.903Z,15.68
2023-04-12T23:04:49.328Z,15.45
2023-04-12T23:07:54.982Z,15.70
2023-04-12T23:11:05.024Z,15.70
2023-04-12T23:14:10.928Z,16.77
2023-04-12T23:17:17.180Z,16.33
2023-04-12T23:20:22.847Z,16.42
2023-04-12T23:23:28.268Z,15.38
2023-04-12T23:26:36.940Z,15.25
2023-04-12T23:29:42.603Z,15.55
2023-04-12T23:32:48.506Z,15.80
2023-04-12T23:35:56.436Z,15.48
2023-04-12T23:39:02.466Z,15.83
2023-04-12T23:42:11.993Z,15.05
2023-04-12T23:45:17.679Z,16.60
2023-04-12T23:48:23.164Z,16.48
2023-04-12T23:51:28.610Z,15.90
2023-04-12T23:54:33.884Z,15.98
2023-04-12T23:57:42.560Z,17.17
